sensor_id;sensor_type;location;lat;lon;timestamp;temperature;humidity
56162;DHT22;42045;52.986;6.014;2022-07-05T00:02:05;13.00;99.90
56162;DHT22;42045;52.986;6.014;2022-07-05T00:04:31;13.00;99.90
56162;DHT22;42045;52.986;6.014;2022-07-05T00:06:57;13.00;99.90
56162;DHT22;42045;52.986;6.014;2022-07-05T00:09:41;12.90;99.90
56162;DHT22;42045;52.986;6.014;2022-07-05T00:12:07;12.80;99.90
56162;DHT22;42045;52.986;6.014;2022-07-05T00:14:33;12.80;99.90
56162;DHT22;42045;52.986;6.014;2022-07-05T00:16:59;12.70;99.90
56162;DHT22;42045;52.986;6.014;2022-07-05T00:19:25;12.70;99.90
56162;DHT22;42045;52.986;6.014;2022-07-05T00:22:00;12.70;99.90
56162;DHT22;42045;52.986;6.014;2022-07-05T00:24:26;12.70;99.90
56162;DHT22;42045;52.986;6.014;2022-07-05T00:26:52;12.60;99.90
56162;DHT22;42045;52.986;6.014;2022-07-05T00:29:18;12.60;99.90
56162;DHT22;42045;52.986;6.014;2022-07-05T00:31:43;12.60;99.90
56162;DHT22;42045;52.986;6.014;2022-07-05T00:34:10;12.60;99.90
56162;DHT22;42045;52.986;6.014;2022-07-05T00:36:35;12.60;99.90
56162;DHT22;42045;52.986;6.014;2022-07-05T00:39:02;12.60;99.90
56162;DHT22;42045;52.986;6.014;2022-07-05T00:41:28;12.50;99.90
56162;DHT22;42045;52.986;6.014;2022-07-05T00:43:55;12.50;99.90
56162;DHT22;42045;52.986;6.014;2022-07-05T00:46:22;12.50;99.90
56162;DHT22;42045;52.986;6.014;2022-07-05T00:48:48;12.40;99.90
56162;DHT22;42045;52.986;6.014;2022-07-05T00:51:14;12.40;99.90
56162;DHT22;42045;52.986;6.014;2022-07-05T00:53:40;12.40;99.90
56162;DHT22;42045;52.986;6.014;2022-07-05T00:56:06;12.40;99.90
56162;DHT22;42045;52.986;6.014;2022-07-05T00:58:33;12.40;99.90
56162;DHT22;42045;52.986;6.014;2022-07-05T01:00:59;12.30;99.90
56162;DHT22;42045;52.986;6.014;2022-07-05T01:03:27;12.30;99.90
56162;DHT22;42045;52.986;6.014;2022-07-05T01:05:54;12.30;99.90
56162;DHT22;42045;52.986;6.014;2022-07-05T01:08:21;12.30;99.90
56162;DHT22;42045;52.986;6.014;2022-07-05T01:10:48;12.30;99.90
56162;DHT22;42045;52.986;6.014;2022-07-05T01:13:14;12.30;99.90
56162;DHT22;42045;52.986;6.014;2022-07-05T01:15:40;12.30;99.90
56162;DHT22;42045;52.986;6.014;2022-07-05T01:18:07;12.20;99.90
56162;DHT22;42045;52.986;6.014;2022-07-05T01:20:34;12.30;99.90
56162;DHT22;42045;52.986;6.014;2022-07-05T01:23:01;12.20;99.90
56162;DHT22;42045;52.986;6.014;2022-07-05T01:25:29;12.30;99.90
56162;DHT22;42045;52.986;6.014;2022-07-05T01:27:57;12.40;99.90
56162;DHT22;42045;52.986;6.014;2022-07-05T01:30:24;12.30;99.90
56162;DHT22;42045;52.986;6.014;2022-07-05T01:32:49;12.40;99.90
56162;DHT22;42045;52.986;6.014;2022-07-05T01:35:17;12.40;99.90
56162;DHT22;42045;52.986;6.014;2022-07-05T01:37:47;12.40;99.90
56162;DHT22;42045;52.986;6.014;2022-07-05T01:40:13;12.40;99.90
56162;DHT22;42045;52.986;6.014;2022-07-05T01:42:39;12.40;99.90
56162;DHT22;42045;52.986;6.014;2022-07-05T01:45:06;12.30;99.90
56162;DHT22;42045;52.986;6.014;2022-07-05T01:47:43;12.30;99.90
56162;DHT22;42045;52.986;6.014;2022-07-05T01:50:12;12.30;99.90
56162;DHT22;42045;52.986;6.014;2022-07-05T01:52:42;12.20;99.90
56162;DHT22;42045;52.986;6.014;2022-07-05T01:55:09;12.20;99.90
56162;DHT22;42045;52.986;6.014;2022-07-05T01:57:35;12.20;99.90
56162;DHT22;42045;52.986;6.014;2022-07-05T02:00:01;12.10;99.90
56162;DHT22;42045;52.986;6.014;2022-07-05T02:02:26;12.10;99.90
56162;DHT22;42045;52.986;6.014;2022-07-05T02:04:52;12.10;99.90
56162;DHT22;42045;52.986;6.014;2022-07-05T02:07:18;12.10;99.90
56162;DHT22;42045;52.986;6.014;2022-07-05T02:09:44;12.10;99.90
56162;DHT22;42045;52.986;6.014;2022-07-05T02:12:09;12.10;99.90
56162;DHT22;42045;52.986;6.014;2022-07-05T02:14:35;12.10;99.90
56162;DHT22;42045;52.986;6.014;2022-07-05T02:17:01;12.10;99.90
56162;DHT22;42045;52.986;6.014;2022-07-05T02:19:27;12.10;99.90
56162;DHT22;42045;52.986;6.014;2022-07-05T02:21:53;12.10;99.90
56162;DHT22;42045;52.986;6.014;2022-07-05T02:24:22;12.10;99.90
56162;DHT22;42045;52.986;6.014;2022-07-05T02:26:48;12.10;99.90
56162;DHT22;42045;52.986;6.014;2022-07-05T02:29:14;12.10;99.90
56162;DHT22;42045;52.986;6.014;2022-07-05T02:31:40;12.00;99.90
56162;DHT22;42045;52.986;6.014;2022-07-05T02:34:05;12.10;99.90
56162;DHT22;42045;52.986;6.014;2022-07-05T02:36:31;12.00;99.90
56162;DHT22;42045;52.986;6.014;2022-07-05T02:38:57;12.00;99.90
56162;DHT22;42045;52.986;6.014;2022-07-05T02:41:22;11.90;99.90
56162;DHT22;42045;52.986;6.014;2022-07-05T02:43:48;11.90;99.90
56162;DHT22;42045;52.986;6.014;2022-07-05T02:46:14;12.00;99.90
56162;DHT22;42045;52.986;6.014;2022-07-05T02:48:40;11.90;99.90
56162;DHT22;42045;52.986;6.014;2022-07-05T02:51:06;11.90;99.90
56162;DHT22;42045;52.986;6.014;2022-07-05T02:53:32;11.90;99.90
56162;DHT22;42045;52.986;6.014;2022-07-05T02:55:59;11.90;99.90
56162;DHT22;42045;52.986;6.014;2022-07-05T02:58:25;11.90;99.90
56162;DHT22;42045;52.986;6.014;2022-07-05T03:00:51;12.00;99.90
56162;DHT22;42045;52.986;6.014;2022-07-05T03:03:16;12.00;99.90
56162;DHT22;42045;52.986;6.014;2022-07-05T03:05:47;12.00;99.90
56162;DHT22;42045;52.986;6.014;2022-07-05T03:08:13;12.00;99.90
56162;DHT22;42045;52.986;6.014;2022-07-05T03:10:39;11.90;99.90
56162;DHT22;42045;52.986;6.014;2022-07-05T03:13:05;12.00;99.90
56162;DHT22;42045;52.986;6.014;2022-07-05T03:15:31;11.90;99.90
56162;DHT22;42045;52.986;6.014;2022-07-05T03:17:57;12.00;99.90
56162;DHT22;42045;52.986;6.014;2022-07-05T03:20:22;12.00;99.90
56162;DHT22;42045;52.986;6.014;2022-07-05T03:22:48;11.90;99.90
56162;DHT22;42045;52.986;6.014;2022-07-05T03:25:14;11.90;99.90
56162;DHT22;42045;52.986;6.014;2022-07-05T03:27:43;11.90;99.90
56162;DHT22;42045;52.986;6.014;2022-07-05T03:30:09;11.80;99.90
56162;DHT22;42045;52.986;6.014;2022-07-05T03:32:35;11.80;99.90
56162;DHT22;42045;52.986;6.014;2022-07-05T03:35:01;11.80;99.90
56162;DHT22;42045;52.986;6.014;2022-07-05T03:37:26;11.80;99.90
56162;DHT22;42045;52.986;6.014;2022-07-05T03:39:52;11.80;99.90
56162;DHT22;42045;52.986;6.014;2022-07-05T03:42:18;11.80;99.90
56162;DHT22;42045;52.986;6.014;2022-07-05T03:44:43;11.80;99.90
56162;DHT22;42045;52.986;6.014;2022-07-05T03:47:09;11.90;99.90
56162;DHT22;42045;52.986;6.014;2022-07-05T03:49:35;11.90;99.90
56162;DHT22;42045;52.986;6.014;2022-07-05T03:52:01;11.90;99.90
56162;DHT22;42045;52.986;6.014;2022-07-05T03:54:26;11.90;99.90
56162;DHT22;42045;52.986;6.014;2022-07-05T03:56:52;11.90;99.90
56162;DHT22;42045;52.986;6.014;2022-07-05T03:59:18;11.90;99.90
56162;DHT22;42045;52.986;6.014;2022-07-05T04:01:43;12.00;99.90
56162;DHT22;42045;52.986;6.014;2022-07-05T04:04:09;12.00;99.90
56162;DHT22;42045;52.986;6.014;2022-07-05T04:06:35;12.10;99.90
56162;DHT22;42045;52.986;6.014;2022-07-05T04:09:01;12.40;99.90
56162;DHT22;42045;52.986;6.014;2022-07-05T04:11:26;13.10;99.90
56162;DHT22;42045;52.986;6.014;2022-07-05T04:13:52;14.10;99.90
56162;DHT22;42045;52.986;6.014;2022-07-05T04:16:18;15.10;99.90
56162;DHT22;42045;52.986;6.014;2022-07-05T04:18:44;16.00;99.90
56162;DHT22;42045;52.986;6.014;2022-07-05T04:21:15;16.80;99.90
56162;DHT22;42045;52.986;6.014;2022-07-05T04:23:40;17.60;99.90
56162;DHT22;42045;52.986;6.014;2022-07-05T04:26:06;18.40;99.90
56162;DHT22;42045;52.986;6.014;2022-07-05T04:28:32;19.20;99.90
56162;DHT22;42045;52.986;6.014;2022-07-05T04:30:58;19.80;99.90
56162;DHT22;42045;52.986;6.014;2022-07-05T04:33:25;20.00;99.90
56162;DHT22;42045;52.986;6.014;2022-07-05T04:35:51;19.80;99.90
56162;DHT22;42045;52.986;6.014;2022-07-05T04:38:16;19.90;99.90
56162;DHT22;42045;52.986;6.014;2022-07-05T04:40:42;19.60;99.90
56162;DHT22;42045;52.986;6.014;2022-07-05T04:43:08;19.30;99.90
56162;DHT22;42045;52.986;6.014;2022-07-05T04:45:33;19.70;99.90
56162;DHT22;42045;52.986;6.014;2022-07-05T04:47:59;20.40;99.90
56162;DHT22;42045;52.986;6.014;2022-07-05T04:50:25;21.20;99.90
56162;DHT22;42045;52.986;6.014;2022-07-05T04:52:51;22.10;99.90
56162;DHT22;42045;52.986;6.014;2022-07-05T04:55:17;22.80;99.90
56162;DHT22;42045;52.986;6.014;2022-07-05T04:57:43;23.30;99.90
56162;DHT22;42045;52.986;6.014;2022-07-05T05:00:10;23.90;99.50
56162;DHT22;42045;52.986;6.014;2022-07-05T05:02:36;24.30;98.70
56162;DHT22;42045;52.986;6.014;2022-07-05T05:05:03;24.80;98.10
56162;DHT22;42045;52.986;6.014;2022-07-05T05:07:29;24.50;97.40
56162;DHT22;42045;52.986;6.014;2022-07-05T05:09:55;23.60;97.70
56162;DHT22;42045;52.986;6.014;2022-07-05T05:12:21;23.00;98.50
56162;DHT22;42045;52.986;6.014;2022-07-05T05:14:47;23.30;99.10
56162;DHT22;42045;52.986;6.014;2022-07-05T05:17:13;24.20;98.70
56162;DHT22;42045;52.986;6.014;2022-07-05T05:19:38;25.10;97.90
56162;DHT22;42045;52.986;6.014;2022-07-05T05:22:04;25.80;97.00
56162;DHT22;42045;52.986;6.014;2022-07-05T05:24:30;25.10;96.60
56162;DHT22;42045;52.986;6.014;2022-07-05T05:26:56;23.90;97.30
56162;DHT22;42045;52.986;6.014;2022-07-05T05:29:21;23.80;98.50
56162;DHT22;42045;52.986;6.014;2022-07-05T05:31:47;24.50;98.20
56162;DHT22;42045;52.986;6.014;2022-07-05T05:34:13;25.50;97.70
56162;DHT22;42045;52.986;6.014;2022-07-05T05:36:39;26.50;96.90
56162;DHT22;42045;52.986;6.014;2022-07-05T05:39:05;27.20;96.30
56162;DHT22;42045;52.986;6.014;2022-07-05T05:41:30;27.90;96.00
56162;DHT22;42045;52.986;6.014;2022-07-05T05:43:56;28.10;94.70
56162;DHT22;42045;52.986;6.014;2022-07-05T05:46:22;28.50;94.50
56162;DHT22;42045;52.986;6.014;2022-07-05T05:48:48;29.20;93.70
56162;DHT22;42045;52.986;6.014;2022-07-05T05:51:13;29.20;92.60
56162;DHT22;42045;52.986;6.014;2022-07-05T05:53:39;28.50;92.60
56162;DHT22;42045;52.986;6.014;2022-07-05T05:56:05;28.60;92.80
56162;DHT22;42045;52.986;6.014;2022-07-05T05:58:31;29.40;92.00
56162;DHT22;42045;52.986;6.014;2022-07-05T06:01:02;30.30;91.60
56162;DHT22;42045;52.986;6.014;2022-07-05T06:03:27;30.80;90.30
56162;DHT22;42045;52.986;6.014;2022-07-05T06:05:53;30.80;90.00
56162;DHT22;42045;52.986;6.014;2022-07-05T06:08:19;29.60;88.90
56162;DHT22;42045;52.986;6.014;2022-07-05T06:10:45;28.60;90.60
56162;DHT22;42045;52.986;6.014;2022-07-05T06:13:12;29.00;90.80
56162;DHT22;42045;52.986;6.014;2022-07-05T06:15:39;29.80;90.30
56162;DHT22;42045;52.986;6.014;2022-07-05T06:18:07;29.70;89.60
56162;DHT22;42045;52.986;6.014;2022-07-05T06:20:34;30.20;87.40
56162;DHT22;42045;52.986;6.014;2022-07-05T06:23:01;30.70;88.00
56162;DHT22;42045;52.986;6.014;2022-07-05T06:25:28;31.30;87.30
56162;DHT22;42045;52.986;6.014;2022-07-05T06:27:55;31.60;86.10
56162;DHT22;42045;52.986;6.014;2022-07-05T06:30:23;32.20;85.50
56162;DHT22;42045;52.986;6.014;2022-07-05T06:32:49;33.00;84.90
56162;DHT22;42045;52.986;6.014;2022-07-05T06:35:17;33.10;82.80
56162;DHT22;42045;52.986;6.014;2022-07-05T06:40:25;33.10;81.70
56162;DHT22;42045;52.986;6.014;2022-07-05T06:42:51;33.00;79.00
56162;DHT22;42045;52.986;6.014;2022-07-05T06:45:18;32.30;78.60
56162;DHT22;42045;52.986;6.014;2022-07-05T06:47:43;30.50;78.80
56162;DHT22;42045;52.986;6.014;2022-07-05T06:50:10;30.00;80.80
56162;DHT22;42045;52.986;6.014;2022-07-05T06:52:38;28.50;81.50
56162;DHT22;42045;52.986;6.014;2022-07-05T06:55:05;27.30;83.80
56162;DHT22;42045;52.986;6.014;2022-07-05T06:57:31;26.40;83.60
56162;DHT22;42045;52.986;6.014;2022-07-05T06:59:56;25.20;84.80
56162;DHT22;42045;52.986;6.014;2022-07-05T07:02:22;24.60;86.60
56162;DHT22;42045;52.986;6.014;2022-07-05T07:04:48;23.90;87.50
56162;DHT22;42045;52.986;6.014;2022-07-05T07:07:14;23.50;88.30
56162;DHT22;42045;52.986;6.014;2022-07-05T07:10:00;23.20;88.70
56162;DHT22;42045;52.986;6.014;2022-07-05T07:12:26;23.00;89.40
56162;DHT22;42045;52.986;6.014;2022-07-05T07:14:52;23.70;89.50
56162;DHT22;42045;52.986;6.014;2022-07-05T07:17:18;24.80;88.00
56162;DHT22;42045;52.986;6.014;2022-07-05T07:19:44;25.30;86.90
56162;DHT22;42045;52.986;6.014;2022-07-05T07:22:10;25.50;87.10
56162;DHT22;42045;52.986;6.014;2022-07-05T07:24:36;25.50;86.70
56162;DHT22;42045;52.986;6.014;2022-07-05T07:27:02;26.10;86.90
56162;DHT22;42045;52.986;6.014;2022-07-05T07:29:28;26.50;87.80
56162;DHT22;42045;52.986;6.014;2022-07-05T07:31:55;26.80;87.60
56162;DHT22;42045;52.986;6.014;2022-07-05T07:34:21;26.50;86.30
56162;DHT22;42045;52.986;6.014;2022-07-05T07:36:48;26.30;85.70
56162;DHT22;42045;52.986;6.014;2022-07-05T07:39:14;26.10;86.10
56162;DHT22;42045;52.986;6.014;2022-07-05T07:41:40;25.60;87.90
56162;DHT22;42045;52.986;6.014;2022-07-05T07:44:05;25.20;85.60
56162;DHT22;42045;52.986;6.014;2022-07-05T07:46:31;24.90;86.40
56162;DHT22;42045;52.986;6.014;2022-07-05T07:48:58;24.70;88.80
56162;DHT22;42045;52.986;6.014;2022-07-05T07:51:24;24.90;88.20
56162;DHT22;42045;52.986;6.014;2022-07-05T07:53:49;25.10;87.50
56162;DHT22;42045;52.986;6.014;2022-07-05T07:56:15;25.10;87.40
56162;DHT22;42045;52.986;6.014;2022-07-05T07:58:42;24.80;88.00
56162;DHT22;42045;52.986;6.014;2022-07-05T08:01:08;24.40;88.40
56162;DHT22;42045;52.986;6.014;2022-07-05T08:03:40;23.50;87.70
56162;DHT22;42045;52.986;6.014;2022-07-05T08:06:07;23.20;90.20
56162;DHT22;42045;52.986;6.014;2022-07-05T08:08:34;23.20;90.20
56162;DHT22;42045;52.986;6.014;2022-07-05T08:11:00;23.40;90.00
56162;DHT22;42045;52.986;6.014;2022-07-05T08:13:26;23.70;89.30
56162;DHT22;42045;52.986;6.014;2022-07-05T08:15:52;23.90;89.20
56162;DHT22;42045;52.986;6.014;2022-07-05T08:18:18;24.30;90.30
56162;DHT22;42045;52.986;6.014;2022-07-05T08:21:02;24.10;88.20
56162;DHT22;42045;52.986;6.014;2022-07-05T08:23:47;23.60;88.40
56162;DHT22;42045;52.986;6.014;2022-07-05T08:26:12;23.10;88.80
56162;DHT22;42045;52.986;6.014;2022-07-05T08:28:38;23.10;90.00
56162;DHT22;42045;52.986;6.014;2022-07-05T08:31:07;22.90;90.30
56162;DHT22;42045;52.986;6.014;2022-07-05T08:33:32;23.10;90.80
56162;DHT22;42045;52.986;6.014;2022-07-05T08:35:58;23.40;91.00
56162;DHT22;42045;52.986;6.014;2022-07-05T08:38:24;23.60;90.00
56162;DHT22;42045;52.986;6.014;2022-07-05T08:40:51;23.60;89.30
56162;DHT22;42045;52.986;6.014;2022-07-05T08:43:22;23.90;90.30
56162;DHT22;42045;52.986;6.014;2022-07-05T08:45:49;24.40;90.60
56162;DHT22;42045;52.986;6.014;2022-07-05T08:48:16;24.60;90.40
56162;DHT22;42045;52.986;6.014;2022-07-05T08:50:43;24.10;88.90
56162;DHT22;42045;52.986;6.014;2022-07-05T08:53:09;24.00;88.70
56162;DHT22;42045;52.986;6.014;2022-07-05T08:55:35;23.70;88.50
56162;DHT22;42045;52.986;6.014;2022-07-05T08:58:02;23.50;89.50
56162;DHT22;42045;52.986;6.014;2022-07-05T09:00:28;23.40;89.80
56162;DHT22;42045;52.986;6.014;2022-07-05T09:02:54;23.20;90.00
56162;DHT22;42045;52.986;6.014;2022-07-05T09:05:21;22.90;89.10
56162;DHT22;42045;52.986;6.014;2022-07-05T09:08:14;22.80;89.50
56162;DHT22;42045;52.986;6.014;2022-07-05T09:10:40;22.80;90.20
56162;DHT22;42045;52.986;6.014;2022-07-05T09:13:07;22.60;89.80
56162;DHT22;42045;52.986;6.014;2022-07-05T09:15:33;22.40;90.10
56162;DHT22;42045;52.986;6.014;2022-07-05T09:17:59;22.40;90.90
56162;DHT22;42045;52.986;6.014;2022-07-05T09:20:27;22.30;90.00
56162;DHT22;42045;52.986;6.014;2022-07-05T09:22:55;22.30;90.20
56162;DHT22;42045;52.986;6.014;2022-07-05T09:25:23;22.10;90.80
56162;DHT22;42045;52.986;6.014;2022-07-05T09:27:58;21.90;91.00
56162;DHT22;42045;52.986;6.014;2022-07-05T09:33:05;21.80;91.30
56162;DHT22;42045;52.986;6.014;2022-07-05T09:35:32;21.90;92.00
56162;DHT22;42045;52.986;6.014;2022-07-05T09:37:58;22.00;92.00
56162;DHT22;42045;52.986;6.014;2022-07-05T09:40:24;21.90;91.70
56162;DHT22;42045;52.986;6.014;2022-07-05T09:42:49;21.80;91.60
56162;DHT22;42045;52.986;6.014;2022-07-05T09:45:22;21.90;92.00
56162;DHT22;42045;52.986;6.014;2022-07-05T09:47:53;22.00;92.40
56162;DHT22;42045;52.986;6.014;2022-07-05T09:50:38;22.10;92.20
56162;DHT22;42045;52.986;6.014;2022-07-05T09:53:03;22.00;92.40
56162;DHT22;42045;52.986;6.014;2022-07-05T09:55:30;21.60;91.70
56162;DHT22;42045;52.986;6.014;2022-07-05T09:57:55;21.70;92.10
56162;DHT22;42045;52.986;6.014;2022-07-05T10:00:22;21.90;92.40
56162;DHT22;42045;52.986;6.014;2022-07-05T10:02:50;22.10;92.80
56162;DHT22;42045;52.986;6.014;2022-07-05T10:05:24;22.50;92.20
56162;DHT22;42045;52.986;6.014;2022-07-05T10:07:53;22.60;90.60
56162;DHT22;42045;52.986;6.014;2022-07-05T10:10:30;22.30;90.90
56162;DHT22;42045;52.986;6.014;2022-07-05T10:12:59;22.00;91.50
56162;DHT22;42045;52.986;6.014;2022-07-05T10:15:29;22.00;91.40
56162;DHT22;42045;52.986;6.014;2022-07-05T10:18:07;22.30;92.60
56162;DHT22;42045;52.986;6.014;2022-07-05T10:23:07;22.80;92.00
56162;DHT22;42045;52.986;6.014;2022-07-05T10:25:35;22.90;91.60
56162;DHT22;42045;52.986;6.014;2022-07-05T10:28:01;23.20;91.60
56162;DHT22;42045;52.986;6.014;2022-07-05T10:30:26;23.50;91.60
56162;DHT22;42045;52.986;6.014;2022-07-05T10:32:54;23.70;91.10
56162;DHT22;42045;52.986;6.014;2022-07-05T10:35:21;23.30;88.80
56162;DHT22;42045;52.986;6.014;2022-07-05T10:37:48;23.00;90.20
56162;DHT22;42045;52.986;6.014;2022-07-05T10:40:15;22.90;90.00
56162;DHT22;42045;52.986;6.014;2022-07-05T10:42:43;23.10;90.10
56162;DHT22;42045;52.986;6.014;2022-07-05T10:45:36;23.20;89.60
56162;DHT22;42045;52.986;6.014;2022-07-05T10:50:54;23.10;87.60
56162;DHT22;42045;52.986;6.014;2022-07-05T10:53:23;23.00;88.40
56162;DHT22;42045;52.986;6.014;2022-07-05T11:00:47;23.20;90.10
56162;DHT22;42045;52.986;6.014;2022-07-05T11:06:00;23.30;87.30
56162;DHT22;42045;52.986;6.014;2022-07-05T11:08:28;23.20;85.70
56162;DHT22;42045;52.986;6.014;2022-07-05T11:11:12;23.10;86.50
56162;DHT22;42045;52.986;6.014;2022-07-05T11:13:41;23.30;87.00
56162;DHT22;42045;52.986;6.014;2022-07-05T11:19:08;23.70;89.30
56162;DHT22;42045;52.986;6.014;2022-07-05T11:21:36;23.80;87.80
56162;DHT22;42045;52.986;6.014;2022-07-05T11:26:48;23.60;87.10
56162;DHT22;42045;52.986;6.014;2022-07-05T11:32:09;23.10;89.00
56162;DHT22;42045;52.986;6.014;2022-07-05T11:34:36;23.00;90.50
56162;DHT22;42045;52.986;6.014;2022-07-05T11:37:35;23.00;90.80
56162;DHT22;42045;52.986;6.014;2022-07-05T11:42:47;23.40;91.40
56162;DHT22;42045;52.986;6.014;2022-07-05T11:45:13;23.10;91.10
56162;DHT22;42045;52.986;6.014;2022-07-05T11:47:40;22.80;91.10
56162;DHT22;42045;52.986;6.014;2022-07-05T11:50:07;22.60;91.50
56162;DHT22;42045;52.986;6.014;2022-07-05T11:52:35;22.40;91.80
56162;DHT22;42045;52.986;6.014;2022-07-05T11:55:04;22.60;92.00
56162;DHT22;42045;52.986;6.014;2022-07-05T11:57:30;22.90;92.40
56162;DHT22;42045;52.986;6.014;2022-07-05T11:59:56;23.10;92.10
56162;DHT22;42045;52.986;6.014;2022-07-05T12:02:21;23.30;92.00
56162;DHT22;42045;52.986;6.014;2022-07-05T12:04:52;23.30;92.30
56162;DHT22;42045;52.986;6.014;2022-07-05T12:07:32;23.40;92.00
56162;DHT22;42045;52.986;6.014;2022-07-05T12:09:59;23.30;91.10
56162;DHT22;42045;52.986;6.014;2022-07-05T12:12:44;23.10;91.40
56162;DHT22;42045;52.986;6.014;2022-07-05T12:15:10;23.20;90.90
56162;DHT22;42045;52.986;6.014;2022-07-05T12:17:37;23.20;91.20
56162;DHT22;42045;52.986;6.014;2022-07-05T12:20:05;23.30;91.30
56162;DHT22;42045;52.986;6.014;2022-07-05T12:22:35;23.40;91.00
56162;DHT22;42045;52.986;6.014;2022-07-05T12:25:06;23.20;90.90
56162;DHT22;42045;52.986;6.014;2022-07-05T12:27:35;22.90;90.60
56162;DHT22;42045;52.986;6.014;2022-07-05T12:30:02;22.60;90.40
56162;DHT22;42045;52.986;6.014;2022-07-05T12:32:29;22.40;90.70
56162;DHT22;42045;52.986;6.014;2022-07-05T12:34:56;22.20;90.70
56162;DHT22;42045;52.986;6.014;2022-07-05T12:37:23;22.20;90.60
56162;DHT22;42045;52.986;6.014;2022-07-05T12:39:50;22.20;90.50
56162;DHT22;42045;52.986;6.014;2022-07-05T12:42:31;22.30;90.60
56162;DHT22;42045;52.986;6.014;2022-07-05T12:45:13;22.50;91.00
56162;DHT22;42045;52.986;6.014;2022-07-05T12:47:56;22.70;91.10
56162;DHT22;42045;52.986;6.014;2022-07-05T12:50:27;22.90;91.20
56162;DHT22;42045;52.986;6.014;2022-07-05T12:53:08;23.00;90.80
56162;DHT22;42045;52.986;6.014;2022-07-05T12:56:04;22.80;90.50
56162;DHT22;42045;52.986;6.014;2022-07-05T12:58:53;22.70;90.60
56162;DHT22;42045;52.986;6.014;2022-07-05T13:01:27;22.70;90.60
56162;DHT22;42045;52.986;6.014;2022-07-05T13:06:58;22.60;90.90
56162;DHT22;42045;52.986;6.014;2022-07-05T13:09:32;22.90;90.50
56162;DHT22;42045;52.986;6.014;2022-07-05T13:14:45;22.90;89.20
56162;DHT22;42045;52.986;6.014;2022-07-05T13:17:13;22.80;90.20
56162;DHT22;42045;52.986;6.014;2022-07-05T13:19:41;22.90;91.40
56162;DHT22;42045;52.986;6.014;2022-07-05T13:22:07;23.00;91.30
56162;DHT22;42045;52.986;6.014;2022-07-05T13:24:34;23.10;91.30
56162;DHT22;42045;52.986;6.014;2022-07-05T13:27:00;23.10;90.10
56162;DHT22;42045;52.986;6.014;2022-07-05T13:29:26;22.90;90.40
56162;DHT22;42045;52.986;6.014;2022-07-05T13:31:52;22.60;90.50
56162;DHT22;42045;52.986;6.014;2022-07-05T13:34:18;22.40;91.10
56162;DHT22;42045;52.986;6.014;2022-07-05T13:36:44;22.40;90.90
56162;DHT22;42045;52.986;6.014;2022-07-05T13:39:13;22.30;90.70
56162;DHT22;42045;52.986;6.014;2022-07-05T13:41:38;22.20;90.20
56162;DHT22;42045;52.986;6.014;2022-07-05T13:44:04;22.10;90.20
56162;DHT22;42045;52.986;6.014;2022-07-05T13:46:30;22.00;89.00
56162;DHT22;42045;52.986;6.014;2022-07-05T13:48:56;22.10;90.10
56162;DHT22;42045;52.986;6.014;2022-07-05T13:51:22;22.10;90.60
56162;DHT22;42045;52.986;6.014;2022-07-05T13:53:47;22.30;90.80
56162;DHT22;42045;52.986;6.014;2022-07-05T13:56:13;22.40;90.40
56162;DHT22;42045;52.986;6.014;2022-07-05T13:58:39;22.50;90.30
56162;DHT22;42045;52.986;6.014;2022-07-05T14:01:08;22.50;90.10
56162;DHT22;42045;52.986;6.014;2022-07-05T14:03:34;22.40;91.20
56162;DHT22;42045;52.986;6.014;2022-07-05T14:05:59;22.60;91.00
56162;DHT22;42045;52.986;6.014;2022-07-05T14:08:25;22.60;90.80
56162;DHT22;42045;52.986;6.014;2022-07-05T14:10:55;22.40;89.70
56162;DHT22;42045;52.986;6.014;2022-07-05T14:13:24;22.30;89.50
56162;DHT22;42045;52.986;6.014;2022-07-05T14:15:50;22.30;90.40
56162;DHT22;42045;52.986;6.014;2022-07-05T14:18:17;22.20;90.60
56162;DHT22;42045;52.986;6.014;2022-07-05T14:20:44;22.10;90.60
56162;DHT22;42045;52.986;6.014;2022-07-05T14:23:11;22.00;90.70
56162;DHT22;42045;52.986;6.014;2022-07-05T14:25:37;21.90;91.60
56162;DHT22;42045;52.986;6.014;2022-07-05T14:28:03;21.70;91.80
56162;DHT22;42045;52.986;6.014;2022-07-05T14:30:37;21.50;91.10
56162;DHT22;42045;52.986;6.014;2022-07-05T14:33:03;21.40;91.90
56162;DHT22;42045;52.986;6.014;2022-07-05T14:35:30;21.20;92.10
56162;DHT22;42045;52.986;6.014;2022-07-05T14:37:56;21.40;92.60
56162;DHT22;42045;52.986;6.014;2022-07-05T14:40:22;21.60;93.50
56162;DHT22;42045;52.986;6.014;2022-07-05T14:42:52;21.80;93.70
56162;DHT22;42045;52.986;6.014;2022-07-05T14:45:19;21.90;92.90
56162;DHT22;42045;52.986;6.014;2022-07-05T14:47:45;21.80;93.00
56162;DHT22;42045;52.986;6.014;2022-07-05T14:50:10;21.70;92.40
56162;DHT22;42045;52.986;6.014;2022-07-05T14:52:36;21.60;92.50
56162;DHT22;42045;52.986;6.014;2022-07-05T14:55:03;21.60;92.70
56162;DHT22;42045;52.986;6.014;2022-07-05T14:57:28;21.70;92.60
56162;DHT22;42045;52.986;6.014;2022-07-05T14:59:54;21.80;92.50
56162;DHT22;42045;52.986;6.014;2022-07-05T15:02:20;21.90;92.70
56162;DHT22;42045;52.986;6.014;2022-07-05T15:04:46;21.70;92.40
56162;DHT22;42045;52.986;6.014;2022-07-05T15:07:11;21.70;92.30
56162;DHT22;42045;52.986;6.014;2022-07-05T15:09:37;21.50;92.10
56162;DHT22;42045;52.986;6.014;2022-07-05T15:12:03;21.40;92.30
56162;DHT22;42045;52.986;6.014;2022-07-05T15:14:29;21.40;92.40
56162;DHT22;42045;52.986;6.014;2022-07-05T15:16:55;21.40;92.80
56162;DHT22;42045;52.986;6.014;2022-07-05T15:19:21;21.40;92.40
56162;DHT22;42045;52.986;6.014;2022-07-05T15:21:48;21.50;92.40
56162;DHT22;42045;52.986;6.014;2022-07-05T15:24:14;21.50;92.00
56162;DHT22;42045;52.986;6.014;2022-07-05T15:26:40;21.40;92.60
56162;DHT22;42045;52.986;6.014;2022-07-05T15:29:07;21.40;92.70
56162;DHT22;42045;52.986;6.014;2022-07-05T15:31:34;21.40;92.80
56162;DHT22;42045;52.986;6.014;2022-07-05T15:34:01;21.30;92.50
56162;DHT22;42045;52.986;6.014;2022-07-05T15:36:27;21.10;92.10
56162;DHT22;42045;52.986;6.014;2022-07-05T15:38:54;20.90;92.40
56162;DHT22;42045;52.986;6.014;2022-07-05T15:41:20;20.60;92.50
56162;DHT22;42045;52.986;6.014;2022-07-05T15:43:51;20.40;92.10
56162;DHT22;42045;52.986;6.014;2022-07-05T15:46:16;20.20;92.40
56162;DHT22;42045;52.986;6.014;2022-07-05T15:48:42;20.10;92.60
56162;DHT22;42045;52.986;6.014;2022-07-05T15:51:08;20.10;92.70
56162;DHT22;42045;52.986;6.014;2022-07-05T15:53:34;20.00;92.70
56162;DHT22;42045;52.986;6.014;2022-07-05T15:55:59;20.00;92.90
56162;DHT22;42045;52.986;6.014;2022-07-05T15:58:27;19.90;92.60
56162;DHT22;42045;52.986;6.014;2022-07-05T16:00:52;19.90;92.70
56162;DHT22;42045;52.986;6.014;2022-07-05T16:03:18;19.90;92.50
56162;DHT22;42045;52.986;6.014;2022-07-05T16:05:44;19.90;92.50
56162;DHT22;42045;52.986;6.014;2022-07-05T16:08:10;19.80;92.80